createdAt,value
2022-11-23T00:04:29.210Z,100.00
2022-11-23T00:09:53.412Z,100.00
2022-11-23T00:15:18.530Z,100.00
2022-11-23T00:20:47.017Z,100.00
2022-11-23T00:26:15.959Z,100.00
2022-11-23T00:31:50.964Z,100.00
2022-11-23T00:37:17.367Z,100.00
2022-11-23T00:42:49.467Z,100.00
2022-11-23T00:48:27.343Z,100.00
2022-11-23T00:54:08.956Z,100.00
2022-11-23T00:59:49.146Z,100.00
2022-11-23T01:05:16.653Z,100.00
2022-11-23T01:10:52.507Z,100.00
2022-11-23T01:16:23.612Z,100.00
2022-11-23T01:21:52.542Z,100.00
2022-11-23T01:27:32.451Z,100.00
2022-11-23T01:33:16.204Z,100.00
2022-11-23T01:38:57.507Z,100.00
2022-11-23T01:44:48.439Z,100.00
2022-11-23T01:50:41.436Z,100.00
2022-11-23T01:56:10.941Z,100.00
2022-11-23T02:01:34.673Z,100.00
2022-11-23T02:07:00.062Z,100.00
2022-11-23T02:12:41.174Z,100.00
2022-11-23T02:18:23.218Z,100.00
2022-11-23T02:24:07.917Z,100.00
2022-11-23T02:29:35.471Z,100.00
2022-11-23T02:35:06.301Z,100.00
2022-11-23T02:40:42.426Z,100.00
2022-11-23T02:46:13.955Z,100.00
2022-11-23T02:51:43.387Z,100.00
2022-11-23T02:57:09.775Z,100.00
2022-11-23T03:02:42.027Z,100.00
2022-11-23T03:08:06.949Z,100.00
2022-11-23T03:13:32.227Z,100.00
2022-11-23T03:19:09.269Z,100.00
2022-11-23T03:24:46.275Z,100.00
2022-11-23T03:30:14.978Z,100.00
2022-11-23T03:35:43.377Z,100.00
2022-11-23T03:41:17.313Z,100.00
2022-11-23T03:46:55.143Z,100.00
2022-11-23T03:52:22.123Z,100.00
2022-11-23T03:57:48.770Z,100.00
2022-11-23T04:03:12.851Z,100.00
2022-11-23T04:14:23.744Z,100.00
2022-11-23T04:19:47.060Z,100.00
2022-11-23T04:25:19.559Z,100.00
2022-11-23T04:30:57.378Z,100.00
2022-11-23T04:36:26.207Z,100.00
2022-11-23T04:41:59.523Z,100.00
2022-11-23T04:47:32.422Z,100.00
2022-11-23T04:52:56.237Z,100.00
2022-11-23T04:58:48.379Z,100.00
2022-11-23T05:04:31.989Z,100.00
2022-11-23T05:10:01.979Z,100.00
2022-11-23T05:15:29.048Z,100.00
2022-11-23T05:20:56.186Z,100.00
2022-11-23T05:26:19.372Z,100.00
2022-11-23T05:31:47.226Z,100.00
2022-11-23T05:37:18.018Z,100.00
2022-11-23T05:42:45.695Z,100.00
2022-11-23T05:48:16.354Z,100.00
2022-11-23T05:53:40.351Z,100.00
2022-11-23T05:59:03.395Z,100.00
2022-11-23T06:04:30.326Z,100.00
2022-11-23T06:10:09.382Z,100.00
2022-11-23T06:15:34.466Z,100.00
2022-11-23T06:21:11.736Z,100.00
2022-11-23T06:26:41.287Z,100.00
2022-11-23T06:32:11.587Z,100.00
2022-11-23T06:37:39.351Z,100.00
2022-11-23T06:43:04.855Z,100.00
2022-11-23T06:48:43.020Z,100.00
2022-11-23T06:54:10.021Z,100.00
2022-11-23T06:59:44.773Z,100.00
2022-11-23T07:05:12.484Z,100.00
2022-11-23T07:10:49.034Z,100.00
2022-11-23T07:16:30.069Z,100.00
2022-11-23T07:22:02.966Z,100.00
2022-11-23T07:27:53.294Z,100.00
2022-11-23T07:33:29.735Z,100.00
2022-11-23T07:39:02.793Z,100.00
2022-11-23T07:44:29.842Z,100.00
2022-11-23T07:50:20.924Z,100.00
2022-11-23T07:55:47.920Z,100.00
2022-11-23T08:01:19.346Z,100.00
2022-11-23T08:06:50.522Z,100.00
2022-11-23T08:12:22.265Z,100.00
2022-11-23T08:17:58.354Z,100.00
2022-11-23T08:23:25.936Z,100.00
2022-11-23T08:28:51.065Z,100.00
2022-11-23T08:34:31.913Z,100.00
2022-11-23T08:39:56.256Z,100.00
2022-11-23T08:45:21.790Z,100.00
2022-11-23T08:50:55.542Z,100.00
2022-11-23T08:56:24.562Z,100.00
2022-11-23T09:01:52.882Z,100.00
2022-11-23T09:07:24.961Z,100.00
2022-11-23T09:12:48.605Z,100.00
2022-11-23T09:18:18.618Z,100.00
2022-11-23T09:23:44.245Z,100.00
2022-11-23T09:29:15.463Z,98.95
2022-11-23T09:34:41.309Z,98.05
2022-11-23T09:40:10.729Z,97.26
2022-11-23T09:45:45.298Z,96.48
2022-11-23T09:51:23.644Z,95.75
2022-11-23T09:56:54.878Z,95.75
2022-11-23T10:02:28.209Z,94.87
2022-11-23T10:08:07.138Z,94.79
2022-11-23T10:13:45.931Z,93.12
2022-11-23T10:19:25.139Z,92.88
2022-11-23T10:25:03.674Z,92.95
2022-11-23T10:30:40.320Z,91.50
2022-11-23T10:36:05.991Z,91.24
2022-11-23T10:41:33.151Z,91.55
2022-11-23T10:47:03.576Z,89.49
2022-11-23T10:52:31.271Z,89.15
2022-11-23T10:57:57.305Z,89.10
2022-11-23T11:03:27.218Z,87.79
2022-11-23T11:09:12.211Z,87.77
2022-11-23T11:14:54.537Z,87.48
2022-11-23T11:20:40.942Z,86.90
2022-11-23T11:26:30.731Z,86.46
2022-11-23T11:32:02.242Z,86.72
2022-11-23T11:37:40.588Z,86.07
2022-11-23T11:43:10.522Z,84.89
2022-11-23T11:48:41.636Z,85.40
2022-11-23T11:54:26.241Z,84.88
2022-11-23T12:00:01.000Z,85.66
2022-11-23T12:05:33.570Z,85.58
2022-11-23T12:11:10.441Z,85.28
2022-11-23T12:17:17.340Z,85.39
2022-11-23T12:23:08.743Z,85.23
2022-11-23T12:29:20.908Z,85.03
2022-11-23T12:35:12.410Z,84.96
2022-11-23T12:40:54.435Z,84.77
2022-11-23T12:46:28.612Z,84.60
2022-11-23T12:52:14.791Z,83.88
2022-11-23T12:57:55.249Z,83.84
2022-11-23T13:03:48.053Z,83.79
2022-11-23T13:09:50.274Z,83.79
2022-11-23T13:15:50.734Z,84.21
2022-11-23T13:21:31.243Z,84.70
2022-11-23T13:27:36.243Z,84.21
2022-11-23T13:33:44.251Z,83.88
2022-11-23T13:39:11.485Z,84.63
2022-11-23T13:44:44.422Z,83.88
2022-11-23T13:50:21.904Z,84.31
2022-11-23T13:56:03.059Z,84.72
2022-11-23T14:02:05.904Z,84.84
2022-11-23T14:07:47.138Z,85.30
2022-11-23T14:13:22.160Z,86.21
2022-11-23T14:19:16.945Z,85.80
2022-11-23T14:25:28.881Z,86.87
2022-11-23T14:31:11.431Z,86.54
2022-11-23T14:36:51.344Z,87.08
2022-11-23T14:42:22.359Z,87.79
2022-11-23T14:47:49.935Z,87.87
2022-11-23T14:53:15.308Z,87.22
2022-11-23T14:58:40.202Z,87.77
2022-11-23T15:04:13.531Z,88.13
2022-11-23T15:09:55.330Z,88.43
2022-11-23T15:15:38.680Z,87.64
2022-11-23T15:21:37.074Z,88.37
2022-11-23T15:27:12.593Z,88.25
2022-11-23T15:32:58.926Z,88.62
2022-11-23T15:44:04.471Z,88.04
2022-11-23T15:49:38.127Z,88.63
2022-11-23T15:55:18.124Z,89.06
2022-11-23T16:00:48.117Z,89.39
2022-11-23T16:06:26.282Z,90.18
2022-11-23T16:12:10.636Z,90.41
2022-11-23T16:17:39.003Z,91.12
2022-11-23T16:29:18.103Z,92.13
2022-11-23T16:34:48.702Z,92.23
2022-11-23T16:40:17.383Z,93.39
2022-11-23T16:45:58.449Z,93.96
2022-11-23T16:51:30.311Z,93.74
2022-11-23T16:57:06.447Z,94.10
2022-11-23T17:02:35.122Z,94.36
2022-11-23T17:08:09.626Z,95.15
2022-11-23T17:13:50.465Z,95.35
2022-11-23T17:19:27.630Z,95.34
2022-11-23T17:25:17.973Z,95.47
2022-11-23T17:30:41.943Z,95.92
2022-11-23T17:36:25.399Z,95.74
2022-11-23T17:41:49.046Z,95.85
2022-11-23T17:47:23.840Z,95.81
2022-11-23T17:52:50.419Z,95.64
2022-11-23T17:58:22.458Z,95.47
2022-11-23T18:03:53.383Z,95.45
2022-11-23T18:09:37.602Z,95.56
2022-11-23T18:15:12.642Z,95.25
2022-11-23T18:20:43.366Z,95.16
2022-11-23T18:26:24.927Z,94.73
2022-11-23T18:32:12.673Z,94.57
2022-11-23T18:37:39.906Z,94.97
2022-11-23T18:43:10.257Z,94.91
2022-11-23T18:48:43.275Z,94.90
2022-11-23T18:54:14.684Z,95.02
2022-11-23T18:59:57.846Z,95.29
2022-11-23T19:05:32.375Z,95.18
2022-11-23T19:10:57.410Z,95.52
2022-11-23T19:16:27.551Z,95.46
2022-11-23T19:22:22.167Z,95.51
2022-11-23T19:28:06.653Z,95.49
2022-11-23T19:34:00.725Z,94.59
2022-11-23T19:39:24.891Z,94.72
2022-11-23T19:45:15.909Z,94.68
2022-11-23T19:50:59.627Z,95.62
2022-11-23T19:56:30.766Z,95.71
2022-11-23T20:02:02.740Z,94.61
2022-11-23T20:07:35.702Z,95.56
2022-11-23T20:13:01.460Z,95.92
2022-11-23T20:18:31.640Z,95.77
2022-11-23T20:24:20.871Z,96.13
2022-11-23T20:29:56.360Z,96.40
2022-11-23T20:35:28.703Z,96.57
2022-11-23T20:41:00.854Z,97.04
2022-11-23T20:47:01.951Z,96.93
2022-11-23T20:52:32.183Z,97.29
2022-11-23T20:58:15.510Z,97.65
2022-11-23T21:03:46.162Z,97.70
2022-11-23T21:09:19.529Z,97.71
2022-11-23T21:15:06.394Z,97.98
2022-11-23T21:20:42.378Z,98.36
2022-11-23T21:26:13.032Z,98.91
2022-11-23T21:31:57.108Z,99.02
2022-11-23T21:37:39.066Z,98.92
2022-11-23T21:43:10.323Z,99.34
2022-11-23T21:48:58.431Z,99.54
2022-11-23T21:54:32.684Z,99.55
2022-11-23T21:59:57.821Z,100.00
2022-11-23T22:05:31.826Z,100.00
2022-11-23T22:11:13.903Z,100.00
2022-11-23T22:16:42.562Z,100.00
2022-11-23T22:22:31.754Z,100.00
2022-11-23T22:28:26.843Z,100.00
2022-11-23T22:34:02.440Z,100.00
2022-11-23T22:39:36.788Z,100.00
2022-11-23T22:45:06.795Z,100.00
2022-11-23T22:50:56.106Z,100.00
2022-11-23T22:56:23.422Z,100.00
2022-11-23T23:07:34.315Z,100.00
2022-11-23T23:13:01.375Z,100.00
2022-11-23T23:24:27.841Z,100.00
2022-11-23T23:35:36.517Z,100.00
2022-11-23T23:41:07.443Z,100.00
2022-11-23T23:46:35.611Z,100.00
2022-11-23T23:52:06.835Z,100.00
2022-11-23T23:57:32.405Z,100.00
